sensor_id;sensor_type;location;lat;lon;timestamp;temperature;humidity
28247;DHT22;66191;53.178;22.058;2023-08-17T00:01:31;23.50;85.70
28247;DHT22;66191;53.178;22.058;2023-08-17T00:04:06;23.50;85.80
28247;DHT22;66191;53.178;22.058;2023-08-17T00:06:41;23.50;86.00
28247;DHT22;66191;53.178;22.058;2023-08-17T00:09:26;23.50;85.90
28247;DHT22;66191;53.178;22.058;2023-08-17T00:11:59;23.40;85.90
28247;DHT22;66191;53.178;22.058;2023-08-17T00:14:33;23.40;85.90
28247;DHT22;66191;53.178;22.058;2023-08-17T00:17:10;23.40;85.90
28247;DHT22;66191;53.178;22.058;2023-08-17T00:19:43;23.40;85.90
28247;DHT22;66191;53.178;22.058;2023-08-17T00:22:14;23.40;86.20
28247;DHT22;66191;53.178;22.058;2023-08-17T00:24:48;23.40;86.20
28247;DHT22;66191;53.178;22.058;2023-08-17T00:27:29;23.30;86.50
28247;DHT22;66191;53.178;22.058;2023-08-17T00:30:03;23.30;86.50
28247;DHT22;66191;53.178;22.058;2023-08-17T00:32:40;23.30;86.80
28247;DHT22;66191;53.178;22.058;2023-08-17T00:35:13;23.20;86.90
28247;DHT22;66191;53.178;22.058;2023-08-17T00:37:47;23.20;87.10
28247;DHT22;66191;53.178;22.058;2023-08-17T00:40:26;23.20;87.40
28247;DHT22;66191;53.178;22.058;2023-08-17T00:42:59;23.10;87.80
28247;DHT22;66191;53.178;22.058;2023-08-17T00:45:32;23.10;88.00
28247;DHT22;66191;53.178;22.058;2023-08-17T00:48:09;23.10;88.40
28247;DHT22;66191;53.178;22.058;2023-08-17T00:50:44;23.00;88.80
28247;DHT22;66191;53.178;22.058;2023-08-17T00:53:26;23.00;89.20
28247;DHT22;66191;53.178;22.058;2023-08-17T00:56:03;22.90;89.50
28247;DHT22;66191;53.178;22.058;2023-08-17T00:58:38;22.90;90.00
28247;DHT22;66191;53.178;22.058;2023-08-17T01:01:16;22.90;90.20
28247;DHT22;66191;53.178;22.058;2023-08-17T01:03:50;22.80;90.40
28247;DHT22;66191;53.178;22.058;2023-08-17T01:06:21;22.80;90.50
28247;DHT22;66191;53.178;22.058;2023-08-17T01:08:53;22.80;90.60
28247;DHT22;66191;53.178;22.058;2023-08-17T01:11:34;22.80;90.70
28247;DHT22;66191;53.178;22.058;2023-08-17T01:14:14;22.80;90.90
28247;DHT22;66191;53.178;22.058;2023-08-17T01:16:50;22.80;91.00
28247;DHT22;66191;53.178;22.058;2023-08-17T01:19:26;22.70;91.00
28247;DHT22;66191;53.178;22.058;2023-08-17T01:22:11;22.70;91.10
28247;DHT22;66191;53.178;22.058;2023-08-17T01:24:47;22.70;91.20
28247;DHT22;66191;53.178;22.058;2023-08-17T01:27:33;22.70;91.30
28247;DHT22;66191;53.178;22.058;2023-08-17T01:30:06;22.70;91.30
28247;DHT22;66191;53.178;22.058;2023-08-17T01:32:46;22.70;91.40
28247;DHT22;66191;53.178;22.058;2023-08-17T01:35:24;22.70;91.70
28247;DHT22;66191;53.178;22.058;2023-08-17T01:38:04;22.70;92.10
28247;DHT22;66191;53.178;22.058;2023-08-17T01:40:44;22.70;91.70
28247;DHT22;66191;53.178;22.058;2023-08-17T01:43:17;22.70;91.90
28247;DHT22;66191;53.178;22.058;2023-08-17T01:45:49;22.70;91.90
28247;DHT22;66191;53.178;22.058;2023-08-17T01:48:21;22.70;92.00
28247;DHT22;66191;53.178;22.058;2023-08-17T01:50:53;22.70;92.10
28247;DHT22;66191;53.178;22.058;2023-08-17T01:53:24;22.70;92.30
28247;DHT22;66191;53.178;22.058;2023-08-17T01:56:06;22.70;92.40
28247;DHT22;66191;53.178;22.058;2023-08-17T01:58:38;22.60;92.60
28247;DHT22;66191;53.178;22.058;2023-08-17T02:01:10;22.70;92.80
28247;DHT22;66191;53.178;22.058;2023-08-17T02:03:44;22.60;93.10
28247;DHT22;66191;53.178;22.058;2023-08-17T02:06:17;22.60;93.20
28247;DHT22;66191;53.178;22.058;2023-08-17T02:08:52;22.50;93.40
28247;DHT22;66191;53.178;22.058;2023-08-17T02:11:29;22.50;93.60
28247;DHT22;66191;53.178;22.058;2023-08-17T02:14:00;22.40;93.90
28247;DHT22;66191;53.178;22.058;2023-08-17T02:16:32;22.40;94.00
28247;DHT22;66191;53.178;22.058;2023-08-17T02:19:03;22.40;94.10
28247;DHT22;66191;53.178;22.058;2023-08-17T02:21:35;22.30;94.20
28247;DHT22;66191;53.178;22.058;2023-08-17T02:24:08;22.30;94.40
28247;DHT22;66191;53.178;22.058;2023-08-17T02:26:45;22.30;94.40
28247;DHT22;66191;53.178;22.058;2023-08-17T02:29:16;22.20;94.60
28247;DHT22;66191;53.178;22.058;2023-08-17T02:31:49;22.30;94.60
28247;DHT22;66191;53.178;22.058;2023-08-17T02:34:20;22.30;94.70
28247;DHT22;66191;53.178;22.058;2023-08-17T02:36:56;22.30;94.70
28247;DHT22;66191;53.178;22.058;2023-08-17T02:39:28;22.30;94.90
28247;DHT22;66191;53.178;22.058;2023-08-17T02:42:04;22.20;95.00
28247;DHT22;66191;53.178;22.058;2023-08-17T02:44:36;22.20;95.30
28247;DHT22;66191;53.178;22.058;2023-08-17T02:47:07;22.20;95.40
28247;DHT22;66191;53.178;22.058;2023-08-17T02:49:38;22.20;95.50
28247;DHT22;66191;53.178;22.058;2023-08-17T02:52:16;22.20;95.60
28247;DHT22;66191;53.178;22.058;2023-08-17T02:54:47;22.20;95.70
28247;DHT22;66191;53.178;22.058;2023-08-17T02:57:21;22.20;95.70
28247;DHT22;66191;53.178;22.058;2023-08-17T02:59:56;22.30;95.90
28247;DHT22;66191;53.178;22.058;2023-08-17T03:02:31;22.30;96.10
28247;DHT22;66191;53.178;22.058;2023-08-17T03:05:13;22.30;96.20
28247;DHT22;66191;53.178;22.058;2023-08-17T03:07:44;22.30;96.40
28247;DHT22;66191;53.178;22.058;2023-08-17T03:10:17;22.30;96.50
28247;DHT22;66191;53.178;22.058;2023-08-17T03:12:53;22.20;96.50
28247;DHT22;66191;53.178;22.058;2023-08-17T03:15:25;22.30;96.80
28247;DHT22;66191;53.178;22.058;2023-08-17T03:17:56;22.20;96.90
28247;DHT22;66191;53.178;22.058;2023-08-17T03:20:31;22.20;97.00
28247;DHT22;66191;53.178;22.058;2023-08-17T03:23:03;22.10;97.20
28247;DHT22;66191;53.178;22.058;2023-08-17T03:25:37;22.20;97.30
28247;DHT22;66191;53.178;22.058;2023-08-17T03:28:14;22.10;97.40
28247;DHT22;66191;53.178;22.058;2023-08-17T03:30:46;22.10;97.60
28247;DHT22;66191;53.178;22.058;2023-08-17T03:33:21;22.00;97.80
28247;DHT22;66191;53.178;22.058;2023-08-17T03:35:52;22.00;98.00
28247;DHT22;66191;53.178;22.058;2023-08-17T03:38:25;21.90;98.10
28247;DHT22;66191;53.178;22.058;2023-08-17T03:41:00;21.90;98.20
28247;DHT22;66191;53.178;22.058;2023-08-17T03:43:35;22.00;98.40
28247;DHT22;66191;53.178;22.058;2023-08-17T03:46:09;21.90;98.40
28247;DHT22;66191;53.178;22.058;2023-08-17T03:48:40;22.00;98.40
28247;DHT22;66191;53.178;22.058;2023-08-17T03:51:15;21.90;98.50
28247;DHT22;66191;53.178;22.058;2023-08-17T03:53:46;21.90;98.70
28247;DHT22;66191;53.178;22.058;2023-08-17T03:56:18;22.00;98.70
28247;DHT22;66191;53.178;22.058;2023-08-17T03:58:53;22.00;98.70
28247;DHT22;66191;53.178;22.058;2023-08-17T04:01:24;22.00;98.80
28247;DHT22;66191;53.178;22.058;2023-08-17T04:03:58;21.90;98.80
28247;DHT22;66191;53.178;22.058;2023-08-17T04:06:30;21.90;98.90
28247;DHT22;66191;53.178;22.058;2023-08-17T04:09:06;22.00;99.00
28247;DHT22;66191;53.178;22.058;2023-08-17T04:11:37;22.00;99.00
28247;DHT22;66191;53.178;22.058;2023-08-17T04:14:14;21.90;99.10
28247;DHT22;66191;53.178;22.058;2023-08-17T04:16:48;21.90;99.30
28247;DHT22;66191;53.178;22.058;2023-08-17T04:19:19;21.80;99.40
28247;DHT22;66191;53.178;22.058;2023-08-17T04:21:54;21.80;99.50
28247;DHT22;66191;53.178;22.058;2023-08-17T04:24:43;21.80;99.50
28247;DHT22;66191;53.178;22.058;2023-08-17T04:27:14;21.80;99.60
28247;DHT22;66191;53.178;22.058;2023-08-17T04:29:49;21.80;99.70
28247;DHT22;66191;53.178;22.058;2023-08-17T04:32:23;21.80;99.90
28247;DHT22;66191;53.178;22.058;2023-08-17T04:34:56;21.80;99.90
28247;DHT22;66191;53.178;22.058;2023-08-17T04:37:29;21.80;99.90
28247;DHT22;66191;53.178;22.058;2023-08-17T04:40:00;21.80;99.90
28247;DHT22;66191;53.178;22.058;2023-08-17T04:42:37;21.80;99.90
28247;DHT22;66191;53.178;22.058;2023-08-17T04:45:22;21.80;99.90
28247;DHT22;66191;53.178;22.058;2023-08-17T04:47:54;21.70;99.90
28247;DHT22;66191;53.178;22.058;2023-08-17T04:50:27;21.80;99.90
28247;DHT22;66191;53.178;22.058;2023-08-17T04:53:00;21.90;99.90
28247;DHT22;66191;53.178;22.058;2023-08-17T04:55:32;21.80;99.90
28247;DHT22;66191;53.178;22.058;2023-08-17T04:58:04;21.90;99.90
28247;DHT22;66191;53.178;22.058;2023-08-17T05:00:41;21.80;99.90
28247;DHT22;66191;53.178;22.058;2023-08-17T05:03:17;21.90;99.90
28247;DHT22;66191;53.178;22.058;2023-08-17T05:06:01;21.90;99.90
28247;DHT22;66191;53.178;22.058;2023-08-17T05:08:33;22.00;99.90
28247;DHT22;66191;53.178;22.058;2023-08-17T05:11:08;22.20;99.90
28247;DHT22;66191;53.178;22.058;2023-08-17T05:13:52;22.30;99.90
28247;DHT22;66191;53.178;22.058;2023-08-17T05:16:34;22.30;99.90
28247;DHT22;66191;53.178;22.058;2023-08-17T05:19:08;22.40;99.90
28247;DHT22;66191;53.178;22.058;2023-08-17T05:21:43;22.50;99.90
28247;DHT22;66191;53.178;22.058;2023-08-17T05:24:17;22.50;99.80
28247;DHT22;66191;53.178;22.058;2023-08-17T05:26:56;22.50;99.80
28247;DHT22;66191;53.178;22.058;2023-08-17T05:29:28;22.60;99.70
28247;DHT22;66191;53.178;22.058;2023-08-17T05:32:06;22.60;99.70
28247;DHT22;66191;53.178;22.058;2023-08-17T05:34:39;22.60;99.60
28247;DHT22;66191;53.178;22.058;2023-08-17T05:37:10;22.70;99.60
28247;DHT22;66191;53.178;22.058;2023-08-17T05:39:44;22.80;99.50
28247;DHT22;66191;53.178;22.058;2023-08-17T05:42:17;22.80;99.30
28247;DHT22;66191;53.178;22.058;2023-08-17T05:44:51;22.90;99.20
28247;DHT22;66191;53.178;22.058;2023-08-17T05:47:26;22.90;99.00
28247;DHT22;66191;53.178;22.058;2023-08-17T05:49:58;22.90;99.10
28247;DHT22;66191;53.178;22.058;2023-08-17T05:52:31;23.00;99.10
28247;DHT22;66191;53.178;22.058;2023-08-17T05:55:07;23.00;99.00
28247;DHT22;66191;53.178;22.058;2023-08-17T05:57:45;23.10;99.00
28247;DHT22;66191;53.178;22.058;2023-08-17T06:00:19;23.20;99.00
28247;DHT22;66191;53.178;22.058;2023-08-17T06:02:53;23.20;98.80
28247;DHT22;66191;53.178;22.058;2023-08-17T06:05:30;23.20;98.90
28247;DHT22;66191;53.178;22.058;2023-08-17T06:08:03;23.20;98.70
28247;DHT22;66191;53.178;22.058;2023-08-17T06:10:35;23.30;98.70
28247;DHT22;66191;53.178;22.058;2023-08-17T06:13:12;23.30;98.60
28247;DHT22;66191;53.178;22.058;2023-08-17T06:15:47;23.20;98.70
28247;DHT22;66191;53.178;22.058;2023-08-17T06:18:21;23.20;98.80
28247;DHT22;66191;53.178;22.058;2023-08-17T06:20:54;23.40;98.70
28247;DHT22;66191;53.178;22.058;2023-08-17T06:23:29;23.50;98.50
28247;DHT22;66191;53.178;22.058;2023-08-17T06:26:05;23.60;98.20
28247;DHT22;66191;53.178;22.058;2023-08-17T06:28:38;23.60;97.70
28247;DHT22;66191;53.178;22.058;2023-08-17T06:31:18;23.80;98.00
28247;DHT22;66191;53.178;22.058;2023-08-17T06:33:55;23.80;97.50
28247;DHT22;66191;53.178;22.058;2023-08-17T06:36:33;24.00;97.40
28247;DHT22;66191;53.178;22.058;2023-08-17T06:39:07;24.00;97.50
28247;DHT22;66191;53.178;22.058;2023-08-17T06:41:41;24.10;96.90
28247;DHT22;66191;53.178;22.058;2023-08-17T06:44:13;24.20;96.70
28247;DHT22;66191;53.178;22.058;2023-08-17T06:46:45;24.20;96.30
28247;DHT22;66191;53.178;22.058;2023-08-17T06:49:34;24.30;96.30
28247;DHT22;66191;53.178;22.058;2023-08-17T06:52:08;24.40;95.90
28247;DHT22;66191;53.178;22.058;2023-08-17T06:54:41;24.50;95.70
28247;DHT22;66191;53.178;22.058;2023-08-17T06:57:15;24.60;95.80
28247;DHT22;66191;53.178;22.058;2023-08-17T06:59:49;24.70;95.50
28247;DHT22;66191;53.178;22.058;2023-08-17T07:02:23;24.70;95.20
28247;DHT22;66191;53.178;22.058;2023-08-17T07:05:19;24.80;95.20
28247;DHT22;66191;53.178;22.058;2023-08-17T07:07:52;24.90;95.20
28247;DHT22;66191;53.178;22.058;2023-08-17T07:10:28;25.00;95.00
28247;DHT22;66191;53.178;22.058;2023-08-17T07:13:00;25.10;94.70
28247;DHT22;66191;53.178;22.058;2023-08-17T07:15:35;25.10;94.60
28247;DHT22;66191;53.178;22.058;2023-08-17T07:18:07;25.20;94.40
28247;DHT22;66191;53.178;22.058;2023-08-17T07:20:42;25.30;94.10
28247;DHT22;66191;53.178;22.058;2023-08-17T07:23:15;25.30;94.00
28247;DHT22;66191;53.178;22.058;2023-08-17T07:25:49;25.40;93.70
28247;DHT22;66191;53.178;22.058;2023-08-17T07:28:21;25.40;93.40
28247;DHT22;66191;53.178;22.058;2023-08-17T07:30:54;25.50;93.40
28247;DHT22;66191;53.178;22.058;2023-08-17T07:33:30;25.50;93.30
28247;DHT22;66191;53.178;22.058;2023-08-17T07:36:07;25.70;93.00
28247;DHT22;66191;53.178;22.058;2023-08-17T07:38:41;25.70;92.80
28247;DHT22;66191;53.178;22.058;2023-08-17T07:41:18;25.80;92.30
28247;DHT22;66191;53.178;22.058;2023-08-17T07:44:02;25.90;92.30
28247;DHT22;66191;53.178;22.058;2023-08-17T07:46:36;26.00;92.20
28247;DHT22;66191;53.178;22.058;2023-08-17T07:49:10;26.10;92.20
28247;DHT22;66191;53.178;22.058;2023-08-17T07:52:04;26.20;92.40
28247;DHT22;66191;53.178;22.058;2023-08-17T07:54:39;26.30;92.20
28247;DHT22;66191;53.178;22.058;2023-08-17T07:57:11;26.50;92.00
28247;DHT22;66191;53.178;22.058;2023-08-17T07:59:52;26.60;91.70
28247;DHT22;66191;53.178;22.058;2023-08-17T08:02:30;26.70;91.30
28247;DHT22;66191;53.178;22.058;2023-08-17T08:05:01;26.80;91.40
28247;DHT22;66191;53.178;22.058;2023-08-17T08:07:38;26.80;91.20
28247;DHT22;66191;53.178;22.058;2023-08-17T08:10:09;26.90;91.20
28247;DHT22;66191;53.178;22.058;2023-08-17T08:12:41;27.00;91.00
28247;DHT22;66191;53.178;22.058;2023-08-17T08:15:14;27.10;90.80
28247;DHT22;66191;53.178;22.058;2023-08-17T08:17:52;27.10;90.60
28247;DHT22;66191;53.178;22.058;2023-08-17T08:20:23;27.20;90.30
28247;DHT22;66191;53.178;22.058;2023-08-17T08:22:59;27.30;90.30
28247;DHT22;66191;53.178;22.058;2023-08-17T08:25:33;27.40;90.10
28247;DHT22;66191;53.178;22.058;2023-08-17T08:28:06;27.50;90.00
28247;DHT22;66191;53.178;22.058;2023-08-17T08:30:45;27.60;90.00
28247;DHT22;66191;53.178;22.058;2023-08-17T08:33:22;27.70;89.20
28247;DHT22;66191;53.178;22.058;2023-08-17T08:35:59;27.80;89.30
28247;DHT22;66191;53.178;22.058;2023-08-17T08:38:33;27.90;88.70
28247;DHT22;66191;53.178;22.058;2023-08-17T08:41:35;28.00;88.50
28247;DHT22;66191;53.178;22.058;2023-08-17T08:44:15;28.10;88.00
28247;DHT22;66191;53.178;22.058;2023-08-17T08:46:57;28.20;87.70
28247;DHT22;66191;53.178;22.058;2023-08-17T08:49:38;28.30;86.60
28247;DHT22;66191;53.178;22.058;2023-08-17T08:52:21;28.40;86.70
28247;DHT22;66191;53.178;22.058;2023-08-17T08:55:17;28.50;86.10
28247;DHT22;66191;53.178;22.058;2023-08-17T08:57:57;28.60;85.50
28247;DHT22;66191;53.178;22.058;2023-08-17T09:00:30;28.70;86.00
28247;DHT22;66191;53.178;22.058;2023-08-17T09:03:10;28.70;85.80
28247;DHT22;66191;53.178;22.058;2023-08-17T09:05:49;28.90;85.40
28247;DHT22;66191;53.178;22.058;2023-08-17T09:08:25;28.90;84.60
28247;DHT22;66191;53.178;22.058;2023-08-17T09:11:10;29.00;84.60
28247;DHT22;66191;53.178;22.058;2023-08-17T09:13:45;29.10;83.90
28247;DHT22;66191;53.178;22.058;2023-08-17T09:16:24;29.10;83.70
28247;DHT22;66191;53.178;22.058;2023-08-17T09:18:59;29.20;83.70
28247;DHT22;66191;53.178;22.058;2023-08-17T09:21:49;29.20;83.80
28247;DHT22;66191;53.178;22.058;2023-08-17T09:24:33;29.30;82.40
28247;DHT22;66191;53.178;22.058;2023-08-17T09:27:12;29.40;82.30
28247;DHT22;66191;53.178;22.058;2023-08-17T09:29:53;29.40;82.60
28247;DHT22;66191;53.178;22.058;2023-08-17T09:32:38;29.50;82.30
28247;DHT22;66191;53.178;22.058;2023-08-17T09:35:12;29.60;81.90
28247;DHT22;66191;53.178;22.058;2023-08-17T09:37:53;29.60;81.00
28247;DHT22;66191;53.178;22.058;2023-08-17T09:40:32;29.70;80.40
28247;DHT22;66191;53.178;22.058;2023-08-17T09:43:08;29.70;80.20
28247;DHT22;66191;53.178;22.058;2023-08-17T09:45:43;29.80;80.40
28247;DHT22;66191;53.178;22.058;2023-08-17T09:48:19;29.80;79.80
28247;DHT22;66191;53.178;22.058;2023-08-17T09:50:56;29.90;79.30
28247;DHT22;66191;53.178;22.058;2023-08-17T09:53:40;29.90;79.00
28247;DHT22;66191;53.178;22.058;2023-08-17T09:56:12;30.00;78.00
28247;DHT22;66191;53.178;22.058;2023-08-17T09:58:49;30.00;78.10
28247;DHT22;66191;53.178;22.058;2023-08-17T10:01:31;30.00;77.10
28247;DHT22;66191;53.178;22.058;2023-08-17T10:04:05;30.00;78.00
28247;DHT22;66191;53.178;22.058;2023-08-17T10:06:45;30.10;78.20
28247;DHT22;66191;53.178;22.058;2023-08-17T10:09:23;30.20;77.40
28247;DHT22;66191;53.178;22.058;2023-08-17T10:11:57;30.20;76.20
28247;DHT22;66191;53.178;22.058;2023-08-17T10:14:41;30.10;75.40
28247;DHT22;66191;53.178;22.058;2023-08-17T10:17:19;30.20;76.80
28247;DHT22;66191;53.178;22.058;2023-08-17T10:19:54;30.30;77.20
28247;DHT22;66191;53.178;22.058;2023-08-17T10:22:31;30.30;76.90
28247;DHT22;66191;53.178;22.058;2023-08-17T10:25:07;30.30;75.90
28247;DHT22;66191;53.178;22.058;2023-08-17T10:27:42;30.40;75.40
28247;DHT22;66191;53.178;22.058;2023-08-17T10:30:22;30.40;74.90
28247;DHT22;66191;53.178;22.058;2023-08-17T10:32:55;30.40;74.60
28247;DHT22;66191;53.178;22.058;2023-08-17T10:35:27;30.40;74.70
28247;DHT22;66191;53.178;22.058;2023-08-17T10:37:59;30.40;74.60
28247;DHT22;66191;53.178;22.058;2023-08-17T10:41:08;30.50;73.40
28247;DHT22;66191;53.178;22.058;2023-08-17T10:43:56;30.50;72.90
28247;DHT22;66191;53.178;22.058;2023-08-17T10:46:38;30.60;71.70
28247;DHT22;66191;53.178;22.058;2023-08-17T10:49:25;30.60;72.40
28247;DHT22;66191;53.178;22.058;2023-08-17T10:52:08;30.60;72.30
28247;DHT22;66191;53.178;22.058;2023-08-17T10:55:08;30.70;72.70
28247;DHT22;66191;53.178;22.058;2023-08-17T10:57:57;30.70;72.40
28247;DHT22;66191;53.178;22.058;2023-08-17T11:00:34;30.70;71.80
28247;DHT22;66191;53.178;22.058;2023-08-17T11:03:14;30.80;71.90
28247;DHT22;66191;53.178;22.058;2023-08-17T11:05:57;30.80;72.20
28247;DHT22;66191;53.178;22.058;2023-08-17T11:08:33;30.80;71.70
28247;DHT22;66191;53.178;22.058;2023-08-17T11:11:15;30.80;71.30
28247;DHT22;66191;53.178;22.058;2023-08-17T11:13:46;30.90;70.30
28247;DHT22;66191;53.178;22.058;2023-08-17T11:16:24;30.90;70.10
28247;DHT22;66191;53.178;22.058;2023-08-17T11:19:02;31.00;70.90
28247;DHT22;66191;53.178;22.058;2023-08-17T11:21:42;31.10;70.60
28247;DHT22;66191;53.178;22.058;2023-08-17T11:24:23;31.10;70.20
28247;DHT22;66191;53.178;22.058;2023-08-17T11:26:57;31.20;70.20
28247;DHT22;66191;53.178;22.058;2023-08-17T11:29:32;31.20;69.00
28247;DHT22;66191;53.178;22.058;2023-08-17T11:32:10;31.20;69.30
28247;DHT22;66191;53.178;22.058;2023-08-17T11:34:51;31.20;68.70
28247;DHT22;66191;53.178;22.058;2023-08-17T11:37:26;31.20;68.40
28247;DHT22;66191;53.178;22.058;2023-08-17T11:40:03;31.20;69.10
28247;DHT22;66191;53.178;22.058;2023-08-17T11:42:51;31.30;68.30
28247;DHT22;66191;53.178;22.058;2023-08-17T11:45:26;31.30;68.10
28247;DHT22;66191;53.178;22.058;2023-08-17T11:48:01;31.40;68.50
28247;DHT22;66191;53.178;22.058;2023-08-17T11:50:40;31.50;68.60
28247;DHT22;66191;53.178;22.058;2023-08-17T11:53:14;31.50;67.60
28247;DHT22;66191;53.178;22.058;2023-08-17T11:55:52;31.50;68.10
28247;DHT22;66191;53.178;22.058;2023-08-17T11:58:45;31.60;68.20
28247;DHT22;66191;53.178;22.058;2023-08-17T12:01:21;31.60;67.40
28247;DHT22;66191;53.178;22.058;2023-08-17T12:03:54;31.70;67.50
28247;DHT22;66191;53.178;22.058;2023-08-17T12:06:30;31.70;67.10
28247;DHT22;66191;53.178;22.058;2023-08-17T12:09:18;31.70;66.60
28247;DHT22;66191;53.178;22.058;2023-08-17T12:11:58;31.80;66.60
28247;DHT22;66191;53.178;22.058;2023-08-17T12:14:35;31.80;66.20
28247;DHT22;66191;53.178;22.058;2023-08-17T12:17:17;31.70;66.40
28247;DHT22;66191;53.178;22.058;2023-08-17T12:19:55;31.80;65.30
28247;DHT22;66191;53.178;22.058;2023-08-17T12:22:30;31.80;65.30
28247;DHT22;66191;53.178;22.058;2023-08-17T12:25:08;31.80;65.10
28247;DHT22;66191;53.178;22.058;2023-08-17T12:27:46;31.80;65.20
28247;DHT22;66191;53.178;22.058;2023-08-17T12:30:25;31.80;65.20
28247;DHT22;66191;53.178;22.058;2023-08-17T12:33:05;31.90;64.50
28247;DHT22;66191;53.178;22.058;2023-08-17T12:35:39;32.00;64.10
28247;DHT22;66191;53.178;22.058;2023-08-17T12:38:14;32.00;62.50
28247;DHT22;66191;53.178;22.058;2023-08-17T12:40:48;32.00;62.70
28247;DHT22;66191;53.178;22.058;2023-08-17T12:43:24;32.00;61.60
28247;DHT22;66191;53.178;22.058;2023-08-17T12:45:57;32.00;61.20
28247;DHT22;66191;53.178;22.058;2023-08-17T12:48:29;32.10;61.30
28247;DHT22;66191;53.178;22.058;2023-08-17T12:51:04;32.10;60.40
28247;DHT22;66191;53.178;22.058;2023-08-17T12:53:38;32.10;60.20
28247;DHT22;66191;53.178;22.058;2023-08-17T12:56:09;32.20;59.80
28247;DHT22;66191;53.178;22.058;2023-08-17T12:58:44;32.20;59.60
28247;DHT22;66191;53.178;22.058;2023-08-17T13:01:15;32.20;59.60
28247;DHT22;66191;53.178;22.058;2023-08-17T13:03:58;32.30;59.90
28247;DHT22;66191;53.178;22.058;2023-08-17T13:06:33;32.30;60.20
28247;DHT22;66191;53.178;22.058;2023-08-17T13:09:19;32.30;60.10
28247;DHT22;66191;53.178;22.058;2023-08-17T13:11:57;32.40;59.50
28247;DHT22;66191;53.178;22.058;2023-08-17T13:14:32;32.40;59.50
28247;DHT22;66191;53.178;22.058;2023-08-17T13:17:03;32.40;59.20
28247;DHT22;66191;53.178;22.058;2023-08-17T13:19:41;32.40;59.00
28247;DHT22;66191;53.178;22.058;2023-08-17T13:22:14;32.30;58.30
28247;DHT22;66191;53.178;22.058;2023-08-17T13:25:00;32.30;58.30
28247;DHT22;66191;53.178;22.058;2023-08-17T13:27:36;32.30;57.80
28247;DHT22;66191;53.178;22.058;2023-08-17T13:30:09;32.30;58.40
28247;DHT22;66191;53.178;22.058;2023-08-17T13:32:42;32.30;58.60
28247;DHT22;66191;53.178;22.058;2023-08-17T13:35:20;32.30;58.20
28247;DHT22;66191;53.178;22.058;2023-08-17T13:38:00;32.40;58.40
28247;DHT22;66191;53.178;22.058;2023-08-17T13:40:43;32.30;57.60
28247;DHT22;66191;53.178;22.058;2023-08-17T13:43:18;32.30;57.90
28247;DHT22;66191;53.178;22.058;2023-08-17T13:45:53;32.30;57.60
28247;DHT22;66191;53.178;22.058;2023-08-17T13:48:33;32.30;57.60
28247;DHT22;66191;53.178;22.058;2023-08-17T13:51:14;32.30;57.80
28247;DHT22;66191;53.178;22.058;2023-08-17T13:53:48;32.30;57.80
28247;DHT22;66191;53.178;22.058;2023-08-17T13:56:29;32.40;57.30
28247;DHT22;66191;53.178;22.058;2023-08-17T13:59:01;32.30;57.00
28247;DHT22;66191;53.178;22.058;2023-08-17T14:01:36;32.30;57.10
28247;DHT22;66191;53.178;22.058;2023-08-17T14:04:20;32.30;56.90
28247;DHT22;66191;53.178;22.058;2023-08-17T14:07:02;32.40;57.20
28247;DHT22;66191;53.178;22.058;2023-08-17T14:09:51;32.40;57.20
28247;DHT22;66191;53.178;22.058;2023-08-17T14:12:41;32.40;56.80
28247;DHT22;66191;53.178;22.058;2023-08-17T14:15:20;32.40;57.00
28247;DHT22;66191;53.178;22.058;2023-08-17T14:18:17;32.40;56.90
28247;DHT22;66191;53.178;22.058;2023-08-17T14:20:56;32.30;56.50
28247;DHT22;66191;53.178;22.058;2023-08-17T14:23:33;32.30;56.00
28247;DHT22;66191;53.178;22.058;2023-08-17T14:26:14;32.30;56.10
28247;DHT22;66191;53.178;22.058;2023-08-17T14:28:56;32.20;56.10
28247;DHT22;66191;53.178;22.058;2023-08-17T14:31:35;32.20;55.90
28247;DHT22;66191;53.178;22.058;2023-08-17T14:34:13;32.10;56.20
28247;DHT22;66191;53.178;22.058;2023-08-17T14:36:48;32.10;56.00
28247;DHT22;66191;53.178;22.058;2023-08-17T14:39:25;32.00;56.10
28247;DHT22;66191;53.178;22.058;2023-08-17T14:42:07;32.00;56.50
28247;DHT22;66191;53.178;22.058;2023-08-17T14:44:43;32.00;56.70
28247;DHT22;66191;53.178;22.058;2023-08-17T14:47:18;31.90;56.20
28247;DHT22;66191;53.178;22.058;2023-08-17T14:49:52;31.90;56.60
28247;DHT22;66191;53.178;22.058;2023-08-17T14:52:27;31.90;57.10
28247;DHT22;66191;53.178;22.058;2023-08-17T14:55:04;31.80;57.20
28247;DHT22;66191;53.178;22.058;2023-08-17T14:57:39;31.80;57.40
28247;DHT22;66191;53.178;22.058;2023-08-17T15:00:18;31.80;57.90
28247;DHT22;66191;53.178;22.058;2023-08-17T15:02:51;31.70;57.90
28247;DHT22;66191;53.178;22.058;2023-08-17T15:05:33;31.70;57.90
28247;DHT22;66191;53.178;22.058;2023-08-17T15:08:07;31.70;58.30
28247;DHT22;66191;53.178;22.058;2023-08-17T15:10:43;31.70;58.60
28247;DHT22;66191;53.178;22.058;2023-08-17T15:13:18;31.60;58.60
28247;DHT22;66191;53.178;22.058;2023-08-17T15:15:58;31.60;59.10
28247;DHT22;66191;53.178;22.058;2023-08-17T15:18:33;31.50;59.10
28247;DHT22;66191;53.178;22.058;2023-08-17T15:21:19;31.50;59.40
28247;DHT22;66191;53.178;22.058;2023-08-17T15:24:03;31.50;59.60
28247;DHT22;66191;53.178;22.058;2023-08-17T15:26:34;31.50;59.90
28247;DHT22;66191;53.178;22.058;2023-08-17T15:29:13;31.40;59.60
28247;DHT22;66191;53.178;22.058;2023-08-17T15:31:57;31.40;59.50
28247;DHT22;66191;53.178;22.058;2023-08-17T15:34:33;31.30;59.60
28247;DHT22;66191;53.178;22.058;2023-08-17T15:37:07;31.30;59.90
28247;DHT22;66191;53.178;22.058;2023-08-17T15:39:39;31.30;60.40
28247;DHT22;66191;53.178;22.058;2023-08-17T15:42:18;31.30;60.00
28247;DHT22;66191;53.178;22.058;2023-08-17T15:44:50;31.20;59.30
28247;DHT22;66191;53.178;22.058;2023-08-17T15:47:28;31.20;58.30
28247;DHT22;66191;53.178;22.058;2023-08-17T15:50:00;31.10;57.60
28247;DHT22;66191;53.178;22.058;2023-08-17T15:52:33;31.10;57.70
28247;DHT22;66191;53.178;22.058;2023-08-17T15:55:07;31.00;56.90
28247;DHT22;66191;53.178;22.058;2023-08-17T15:57:39;31.00;57.00
28247;DHT22;66191;53.178;22.058;2023-08-17T16:00:11;31.00;57.00
28247;DHT22;66191;53.178;22.058;2023-08-17T16:02:48;31.00;57.10
28247;DHT22;66191;53.178;22.058;2023-08-17T16:05:23;30.90;56.70
28247;DHT22;66191;53.178;22.058;2023-08-17T16:08:00;30.90;56.60
28247;DHT22;66191;53.178;22.058;2023-08-17T16:10:36;30.90;56.80
28247;DHT22;66191;53.178;22.058;2023-08-17T16:13:19;30.90;56.90